sensor_id;sensor_type;location;lat;lon;timestamp;pressure;altitude;pressure_sealevel;temperature;humidity
55044;BME280;54902;50.420;18.854;2023-04-28T00:00:06;101803.50;;;6.02;56.32
55044;BME280;54902;50.420;18.854;2023-04-28T00:00:38;101805.35;;;6.02;56.31
55044;BME280;54902;50.420;18.854;2023-04-28T00:01:09;101797.29;;;6.00;56.24
55044;BME280;54902;50.420;18.854;2023-04-28T00:01:41;101803.59;;;6.01;56.25
55044;BME280;54902;50.420;18.854;2023-04-28T00:02:12;101800.05;;;5.99;56.32
55044;BME280;54902;50.420;18.854;2023-04-28T00:02:43;101798.24;;;5.99;56.34
55044;BME280;54902;50.420;18.854;2023-04-28T00:03:18;101800.05;;;5.99;56.33
55044;BME280;54902;50.420;18.854;2023-04-28T00:03:49;101796.55;;;5.97;56.36
55044;BME280;54902;50.420;18.854;2023-04-28T00:04:20;101806.51;;;5.96;56.36
55044;BME280;54902;50.420;18.854;2023-04-28T00:04:51;101804.69;;;5.97;56.37
55044;BME280;54902;50.420;18.854;2023-04-28T00:05:22;101803.79;;;5.96;56.36
55044;BME280;54902;50.420;18.854;2023-04-28T00:05:54;101802.05;;;5.95;56.33
55044;BME280;54902;50.420;18.854;2023-04-28T00:06:25;101806.59;;;5.95;56.34
55044;BME280;54902;50.420;18.854;2023-04-28T00:06:56;101799.43;;;5.94;56.37
55044;BME280;54902;50.420;18.854;2023-04-28T00:07:27;101803.09;;;5.93;56.40
55044;BME280;54902;50.420;18.854;2023-04-28T00:07:58;101786.38;;;5.83;56.41
55044;BME280;54902;50.420;18.854;2023-04-28T00:08:29;101797.66;;;5.93;56.41
55044;BME280;54902;50.420;18.854;2023-04-28T00:09:00;101803.09;;;5.93;56.51
55044;BME280;54902;50.420;18.854;2023-04-28T00:09:31;101803.09;;;5.93;56.52
55044;BME280;54902;50.420;18.854;2023-04-28T00:10:02;101806.74;;;5.92;56.49
55044;BME280;54902;50.420;18.854;2023-04-28T00:10:33;101801.32;;;5.92;56.49
55044;BME280;54902;50.420;18.854;2023-04-28T00:11:08;101795.88;;;5.92;56.52
55044;BME280;54902;50.420;18.854;2023-04-28T00:11:39;101805.88;;;5.91;56.57
55044;BME280;54902;50.420;18.854;2023-04-28T00:12:10;101795.88;;;5.92;56.57
55044;BME280;54902;50.420;18.854;2023-04-28T00:12:41;101796.84;;;5.91;56.59
55044;BME280;54902;50.420;18.854;2023-04-28T00:13:12;101802.26;;;5.91;56.61
55044;BME280;54902;50.420;18.854;2023-04-28T00:13:43;101801.32;;;5.92;56.59
55044;BME280;54902;50.420;18.854;2023-04-28T00:14:14;101805.88;;;5.91;56.60
55044;BME280;54902;50.420;18.854;2023-04-28T00:14:45;101796.84;;;5.91;56.61
55044;BME280;54902;50.420;18.854;2023-04-28T00:15:16;101798.68;;;5.90;56.62
55044;BME280;54902;50.420;18.854;2023-04-28T00:15:49;101795.97;;;5.90;56.67
55044;BME280;54902;50.420;18.854;2023-04-28T00:16:22;101797.81;;;5.90;56.67
55044;BME280;54902;50.420;18.854;2023-04-28T00:16:53;101797.81;;;5.90;56.64
55044;BME280;54902;50.420;18.854;2023-04-28T00:17:28;101804.97;;;5.91;56.64
55044;BME280;54902;50.420;18.854;2023-04-28T00:17:59;101793.26;;;5.90;56.66
55044;BME280;54902;50.420;18.854;2023-04-28T00:18:30;101795.10;;;5.90;56.65
55044;BME280;54902;50.420;18.854;2023-04-28T00:19:03;101800.54;;;5.90;56.64
55044;BME280;54902;50.420;18.854;2023-04-28T00:19:33;101799.55;;;5.91;56.65
55044;BME280;54902;50.420;18.854;2023-04-28T00:20:06;101794.13;;;5.91;56.64
55044;BME280;54902;50.420;18.854;2023-04-28T00:20:37;101795.10;;;5.90;56.61
55044;BME280;54902;50.420;18.854;2023-04-28T00:21:08;101789.61;;;5.91;56.59
55044;BME280;54902;50.420;18.854;2023-04-28T00:21:38;101794.13;;;5.91;56.55
55044;BME280;54902;50.420;18.854;2023-04-28T00:22:09;101790.47;;;5.92;56.57
55044;BME280;54902;50.420;18.854;2023-04-28T00:22:40;101793.18;;;5.92;56.51
55044;BME280;54902;50.420;18.854;2023-04-28T00:23:11;101789.61;;;5.91;56.46
55044;BME280;54902;50.420;18.854;2023-04-28T00:23:42;101789.61;;;5.91;56.44
55044;BME280;54902;50.420;18.854;2023-04-28T00:24:13;101786.90;;;5.91;56.51
55044;BME280;54902;50.420;18.854;2023-04-28T00:24:44;101790.47;;;5.92;56.53
55044;BME280;54902;50.420;18.854;2023-04-28T00:25:15;101788.63;;;5.92;56.51
55044;BME280;54902;50.420;18.854;2023-04-28T00:25:50;101780.48;;;5.92;56.49
55044;BME280;54902;50.420;18.854;2023-04-28T00:26:22;101794.00;;;5.94;56.57
55044;BME280;54902;50.420;18.854;2023-04-28T00:26:52;101784.02;;;5.94;56.59
55044;BME280;54902;50.420;18.854;2023-04-28T00:27:23;101789.52;;;5.93;56.63
55044;BME280;54902;50.420;18.854;2023-04-28T00:27:54;101784.97;;;5.93;56.65
55044;BME280;54902;50.420;18.854;2023-04-28T00:28:25;101793.09;;;5.93;56.62
55044;BME280;54902;50.420;18.854;2023-04-28T00:28:56;101793.02;;;5.95;56.59
55044;BME280;54902;50.420;18.854;2023-04-28T00:29:28;101802.05;;;5.95;56.61
55044;BME280;54902;50.420;18.854;2023-04-28T00:29:59;101796.71;;;5.94;56.64
55044;BME280;54902;50.420;18.854;2023-04-28T00:30:30;101786.73;;;5.94;56.63
55044;BME280;54902;50.420;18.854;2023-04-28T00:31:01;101785.05;;;5.92;56.65
55044;BME280;54902;50.420;18.854;2023-04-28T00:31:32;101796.63;;;5.95;56.62
55044;BME280;54902;50.420;18.854;2023-04-28T00:32:05;101795.73;;;5.95;56.65
55044;BME280;54902;50.420;18.854;2023-04-28T00:32:36;101794.88;;;5.94;56.63
55044;BME280;54902;50.420;18.854;2023-04-28T00:33:06;101798.45;;;5.95;56.67
55044;BME280;54902;50.420;18.854;2023-04-28T00:33:39;101791.29;;;5.94;56.64
55044;BME280;54902;50.420;18.854;2023-04-28T00:34:10;101798.45;;;5.95;56.60
55044;BME280;54902;50.420;18.854;2023-04-28T00:34:44;101796.71;;;5.94;56.60
55044;BME280;54902;50.420;18.854;2023-04-28T00:35:15;101794.00;;;5.94;56.61
55044;BME280;54902;50.420;18.854;2023-04-28T00:35:46;101789.45;;;5.94;56.58
55044;BME280;54902;50.420;18.854;2023-04-28T00:36:17;101798.45;;;5.95;56.53
55044;BME280;54902;50.420;18.854;2023-04-28T00:36:48;101802.14;;;5.94;56.65
55044;BME280;54902;50.420;18.854;2023-04-28T00:37:19;101799.43;;;5.94;56.65
55044;BME280;54902;50.420;18.854;2023-04-28T00:37:50;101795.81;;;5.93;56.68
55044;BME280;54902;50.420;18.854;2023-04-28T00:38:21;101794.95;;;5.93;56.67
55044;BME280;54902;50.420;18.854;2023-04-28T00:38:54;101797.66;;;5.93;56.64
55044;BME280;54902;50.420;18.854;2023-04-28T00:39:25;101789.52;;;5.93;56.62
55044;BME280;54902;50.420;18.854;2023-04-28T00:39:57;101797.66;;;5.93;56.64
55044;BME280;54902;50.420;18.854;2023-04-28T00:40:34;101791.34;;;5.92;56.68
55044;BME280;54902;50.420;18.854;2023-04-28T00:41:08;101785.92;;;5.92;56.59
55044;BME280;54902;50.420;18.854;2023-04-28T00:41:40;101790.47;;;5.92;56.51
55044;BME280;54902;50.420;18.854;2023-04-28T00:42:12;101791.34;;;5.92;56.49
55044;BME280;54902;50.420;18.854;2023-04-28T00:42:43;101786.81;;;5.93;56.49
55044;BME280;54902;50.420;18.854;2023-04-28T00:43:14;101785.99;;;5.91;56.50
55044;BME280;54902;50.420;18.854;2023-04-28T00:43:46;101782.41;;;5.90;56.48
55044;BME280;54902;50.420;18.854;2023-04-28T00:44:17;101772.01;;;5.81;56.50
55044;BME280;54902;50.420;18.854;2023-04-28T00:44:48;101788.71;;;5.91;56.52
55044;BME280;54902;50.420;18.854;2023-04-28T00:45:19;101789.69;;;5.90;56.51
55044;BME280;54902;50.420;18.854;2023-04-28T00:45:51;101786.08;;;5.89;56.51
55044;BME280;54902;50.420;18.854;2023-04-28T00:46:28;101785.99;;;5.91;56.51
55044;BME280;54902;50.420;18.854;2023-04-28T00:46:59;101788.71;;;5.91;56.52
55044;BME280;54902;50.420;18.854;2023-04-28T00:47:32;101787.84;;;5.90;56.54
55044;BME280;54902;50.420;18.854;2023-04-28T00:48:04;101791.42;;;5.91;56.52
55044;BME280;54902;50.420;18.854;2023-04-28T00:48:35;101790.55;;;5.90;56.54
55044;BME280;54902;50.420;18.854;2023-04-28T00:49:06;101792.40;;;5.90;56.53
55044;BME280;54902;50.420;18.854;2023-04-28T00:49:37;101788.71;;;5.91;56.50
55044;BME280;54902;50.420;18.854;2023-04-28T00:50:08;101790.55;;;5.90;56.51
55044;BME280;54902;50.420;18.854;2023-04-28T00:50:41;101791.42;;;5.91;56.49
55044;BME280;54902;50.420;18.854;2023-04-28T00:51:12;101791.34;;;5.92;56.47
55044;BME280;54902;50.420;18.854;2023-04-28T00:51:43;101791.42;;;5.91;56.46
55044;BME280;54902;50.420;18.854;2023-04-28T00:52:14;101783.27;;;5.91;56.51
55044;BME280;54902;50.420;18.854;2023-04-28T00:52:46;101792.32;;;5.91;56.51
55044;BME280;54902;50.420;18.854;2023-04-28T00:53:17;101789.52;;;5.93;56.52
55044;BME280;54902;50.420;18.854;2023-04-28T00:53:49;101792.23;;;5.93;56.52
55044;BME280;54902;50.420;18.854;2023-04-28T00:54:20;101794.95;;;5.93;56.49
55044;BME280;54902;50.420;18.854;2023-04-28T00:54:52;101794.00;;;5.94;56.51
55044;BME280;54902;50.420;18.854;2023-04-28T00:55:23;101794.00;;;5.94;56.51
55044;BME280;54902;50.420;18.854;2023-04-28T00:55:55;101787.68;;;5.93;56.51
55044;BME280;54902;50.420;18.854;2023-04-28T00:56:28;101795.73;;;5.95;56.52
55044;BME280;54902;50.420;18.854;2023-04-28T00:57:01;101796.63;;;5.95;56.54
55044;BME280;54902;50.420;18.854;2023-04-28T00:57:35;101789.37;;;5.96;56.54
55044;BME280;54902;50.420;18.854;2023-04-28T00:58:06;101797.50;;;5.96;56.56
55044;BME280;54902;50.420;18.854;2023-04-28T00:58:37;101792.95;;;5.96;56.58
55044;BME280;54902;50.420;18.854;2023-04-28T00:59:08;101788.41;;;5.97;56.55
55044;BME280;54902;50.420;18.854;2023-04-28T00:59:39;101789.29;;;5.97;56.57
55044;BME280;54902;50.420;18.854;2023-04-28T01:00:11;101790.20;;;5.98;56.53
55044;BME280;54902;50.420;18.854;2023-04-28T01:00:42;101786.50;;;5.99;56.52
55044;BME280;54902;50.420;18.854;2023-04-28T01:01:13;101797.34;;;5.99;56.51
55044;BME280;54902;50.420;18.854;2023-04-28T01:01:44;101790.11;;;5.99;56.46
55044;BME280;54902;50.420;18.854;2023-04-28T01:02:16;101795.45;;;6.01;56.48
55044;BME280;54902;50.420;18.854;2023-04-28T01:02:49;101776.05;;;5.91;56.47
55044;BME280;54902;50.420;18.854;2023-04-28T01:03:21;101793.60;;;6.01;56.44
55044;BME280;54902;50.420;18.854;2023-04-28T01:03:52;101798.16;;;6.01;56.47
55044;BME280;54902;50.420;18.854;2023-04-28T01:04:23;101798.09;;;6.02;56.45
55044;BME280;54902;50.420;18.854;2023-04-28T01:04:55;101791.79;;;6.02;56.41
55044;BME280;54902;50.420;18.854;2023-04-28T01:05:28;101793.52;;;6.03;56.39
55044;BME280;54902;50.420;18.854;2023-04-28T01:05:59;101795.29;;;6.04;56.38
55044;BME280;54902;50.420;18.854;2023-04-28T01:06:31;101793.52;;;6.03;56.36
55044;BME280;54902;50.420;18.854;2023-04-28T01:07:03;101796.23;;;6.03;56.45
55044;BME280;54902;50.420;18.854;2023-04-28T01:07:34;101792.58;;;6.04;56.45
55044;BME280;54902;50.420;18.854;2023-04-28T01:08:06;101800.71;;;6.04;56.47
55044;BME280;54902;50.420;18.854;2023-04-28T01:08:37;101795.29;;;6.04;56.46
55044;BME280;54902;50.420;18.854;2023-04-28T01:09:08;101798.01;;;6.04;56.47
55044;BME280;54902;50.420;18.854;2023-04-28T01:09:40;101794.42;;;6.03;56.51
55044;BME280;54902;50.420;18.854;2023-04-28T01:10:11;101799.84;;;6.03;56.53
55044;BME280;54902;50.420;18.854;2023-04-28T01:10:44;101795.29;;;6.04;56.53
55044;BME280;54902;50.420;18.854;2023-04-28T01:11:16;101799.84;;;6.03;56.50
55044;BME280;54902;50.420;18.854;2023-04-28T01:11:47;101800.71;;;6.04;56.52
55044;BME280;54902;50.420;18.854;2023-04-28T01:12:17;101797.21;;;6.02;56.55
55044;BME280;54902;50.420;18.854;2023-04-28T01:12:48;101806.21;;;6.02;56.56
55044;BME280;54902;50.420;18.854;2023-04-28T01:13:19;101798.95;;;6.03;56.58
55044;BME280;54902;50.420;18.854;2023-04-28T01:13:50;101802.64;;;6.02;56.57
55044;BME280;54902;50.420;18.854;2023-04-28T01:14:22;101793.52;;;6.03;56.54
55044;BME280;54902;50.420;18.854;2023-04-28T01:14:53;101797.21;;;6.02;56.52
55044;BME280;54902;50.420;18.854;2023-04-28T01:15:25;101807.16;;;6.01;56.53
55044;BME280;54902;50.420;18.854;2023-04-28T01:15:56;101801.74;;;6.01;56.51
55044;BME280;54902;50.420;18.854;2023-04-28T01:16:27;101797.21;;;6.02;56.51
55044;BME280;54902;50.420;18.854;2023-04-28T01:17:02;101792.74;;;6.01;56.50
55044;BME280;54902;50.420;18.854;2023-04-28T01:17:33;101798.16;;;6.01;56.44
55044;BME280;54902;50.420;18.854;2023-04-28T01:18:05;101796.31;;;6.01;56.45
55044;BME280;54902;50.420;18.854;2023-04-28T01:18:37;101800.88;;;6.01;56.44
55044;BME280;54902;50.420;18.854;2023-04-28T01:19:16;101795.45;;;6.01;56.47
55044;BME280;54902;50.420;18.854;2023-04-28T01:19:51;101792.74;;;6.01;56.50
55044;BME280;54902;50.420;18.854;2023-04-28T01:20:22;101784.60;;;6.01;56.48
55044;BME280;54902;50.420;18.854;2023-04-28T01:20:53;101790.97;;;6.00;56.50
55044;BME280;54902;50.420;18.854;2023-04-28T01:21:25;101787.40;;;5.99;56.45
55044;BME280;54902;50.420;18.854;2023-04-28T01:21:59;101789.16;;;6.00;56.46
55044;BME280;54902;50.420;18.854;2023-04-28T01:22:30;101796.39;;;6.00;56.46
55044;BME280;54902;50.420;18.854;2023-04-28T01:23:01;101788.26;;;6.00;56.42
55044;BME280;54902;50.420;18.854;2023-04-28T01:23:32;101788.26;;;6.00;56.40
55044;BME280;54902;50.420;18.854;2023-04-28T01:24:05;101787.40;;;5.99;56.39
55044;BME280;54902;50.420;18.854;2023-04-28T01:24:36;101785.55;;;6.00;56.37
55044;BME280;54902;50.420;18.854;2023-04-28T01:25:07;101777.41;;;6.00;56.37
55044;BME280;54902;50.420;18.854;2023-04-28T01:25:38;101786.45;;;6.00;56.34
55044;BME280;54902;50.420;18.854;2023-04-28T01:26:09;101784.67;;;5.99;56.29
55044;BME280;54902;50.420;18.854;2023-04-28T01:26:40;101784.77;;;5.98;56.31
55044;BME280;54902;50.420;18.854;2023-04-28T01:27:11;101787.40;;;5.99;56.28
55044;BME280;54902;50.420;18.854;2023-04-28T01:27:42;101786.50;;;5.99;56.27
55044;BME280;54902;50.420;18.854;2023-04-28T01:28:13;101791.92;;;5.99;56.26
55044;BME280;54902;50.420;18.854;2023-04-28T01:28:44;101789.21;;;5.99;56.27
55044;BME280;54902;50.420;18.854;2023-04-28T01:29:15;101782.91;;;5.98;56.28
55044;BME280;54902;50.420;18.854;2023-04-28T01:29:46;101779.34;;;5.98;56.30
55044;BME280;54902;50.420;18.854;2023-04-28T01:30:17;101784.77;;;5.98;56.26
55044;BME280;54902;50.420;18.854;2023-04-28T01:30:48;101782.91;;;5.98;56.34
55044;BME280;54902;50.420;18.854;2023-04-28T01:31:19;101788.34;;;5.98;56.34
55044;BME280;54902;50.420;18.854;2023-04-28T01:31:50;101784.77;;;5.98;56.36
55044;BME280;54902;50.420;18.854;2023-04-28T01:32:21;101783.86;;;5.97;56.33
55044;BME280;54902;50.420;18.854;2023-04-28T01:32:51;101790.20;;;5.98;56.34
55044;BME280;54902;50.420;18.854;2023-04-28T01:33:22;101782.99;;;5.97;56.35
55044;BME280;54902;50.420;18.854;2023-04-28T01:33:53;101779.34;;;5.98;56.30
55044;BME280;54902;50.420;18.854;2023-04-28T01:34:24;101785.70;;;5.97;56.31
55044;BME280;54902;50.420;18.854;2023-04-28T01:34:55;101789.29;;;5.97;56.31
55044;BME280;54902;50.420;18.854;2023-04-28T01:35:26;101794.71;;;5.97;56.31
55044;BME280;54902;50.420;18.854;2023-04-28T01:35:57;101783.16;;;5.94;56.22
55044;BME280;54902;50.420;18.854;2023-04-28T01:36:29;101788.41;;;5.97;56.30
55044;BME280;54902;50.420;18.854;2023-04-28T01:37:00;101786.65;;;5.96;56.31
55044;BME280;54902;50.420;18.854;2023-04-28T01:37:31;101787.52;;;5.96;56.34
55044;BME280;54902;50.420;18.854;2023-04-28T01:38:02;101782.99;;;5.97;56.32
55044;BME280;54902;50.420;18.854;2023-04-28T01:38:33;101782.09;;;5.96;56.36
55044;BME280;54902;50.420;18.854;2023-04-28T01:39:04;101789.29;;;5.97;56.33
55044;BME280;54902;50.420;18.854;2023-04-28T01:39:36;101782.99;;;5.97;56.31
55044;BME280;54902;50.420;18.854;2023-04-28T01:40:07;101775.72;;;5.97;56.31
55044;BME280;54902;50.420;18.854;2023-04-28T01:40:38;101783.86;;;5.97;56.31
55044;BME280;54902;50.420;18.854;2023-04-28T01:41:09;101784.80;;;5.96;56.32
55044;BME280;54902;50.420;18.854;2023-04-28T01:41:40;101782.05;;;5.98;56.31
55044;BME280;54902;50.420;18.854;2023-04-28T01:42:11;101779.34;;;5.98;56.31
55044;BME280;54902;50.420;18.854;2023-04-28T01:42:42;101784.77;;;5.98;56.30
55044;BME280;54902;50.420;18.854;2023-04-28T01:43:13;101784.77;;;5.98;56.31
55044;BME280;54902;50.420;18.854;2023-04-28T01:43:44;101791.92;;;5.99;56.31
55044;BME280;54902;50.420;18.854;2023-04-28T01:44:15;101781.07;;;5.99;56.33
55044;BME280;54902;50.420;18.854;2023-04-28T01:44:46;101785.55;;;6.00;56.36
55044;BME280;54902;50.420;18.854;2023-04-28T01:45:17;101788.26;;;6.00;56.35
55044;BME280;54902;50.420;18.854;2023-04-28T01:45:48;101778.30;;;6.00;56.37
55044;BME280;54902;50.420;18.854;2023-04-28T01:46:19;101784.60;;;6.01;56.37
55044;BME280;54902;50.420;18.854;2023-04-28T01:46:50;101781.03;;;6.00;56.37
55044;BME280;54902;50.420;18.854;2023-04-28T01:47:21;101787.31;;;6.01;56.35
55044;BME280;54902;50.420;18.854;2023-04-28T01:47:51;101786.37;;;6.02;56.37
55044;BME280;54902;50.420;18.854;2023-04-28T01:48:22;101782.76;;;6.01;56.36
55044;BME280;54902;50.420;18.854;2023-04-28T01:48:53;101778.23;;;6.02;56.35
55044;BME280;54902;50.420;18.854;2023-04-28T01:49:24;101778.23;;;6.02;56.39
55044;BME280;54902;50.420;18.854;2023-04-28T01:49:55;101790.80;;;6.03;56.39
55044;BME280;54902;50.420;18.854;2023-04-28T01:50:26;101785.38;;;6.03;56.38
55044;BME280;54902;50.420;18.854;2023-04-28T01:50:57;101784.43;;;6.04;56.36
55044;BME280;54902;50.420;18.854;2023-04-28T01:51:28;101793.52;;;6.03;56.36
55044;BME280;54902;50.420;18.854;2023-04-28T01:52:00;101789.87;;;6.04;56.39
55044;BME280;54902;50.420;18.854;2023-04-28T01:52:31;101784.43;;;6.04;56.38
55044;BME280;54902;50.420;18.854;2023-04-28T01:53:02;101792.50;;;6.05;56.36
55044;BME280;54902;50.420;18.854;2023-04-28T01:53:33;101786.20;;;6.05;56.34
55044;BME280;54902;50.420;18.854;2023-04-28T01:54:04;101795.21;;;6.05;56.35
55044;BME280;54902;50.420;18.854;2023-04-28T01:54:35;101794.26;;;6.06;56.37
55044;BME280;54902;50.420;18.854;2023-04-28T01:55:06;101797.05;;;6.05;56.36
55044;BME280;54902;50.420;18.854;2023-04-28T01:55:37;101785.25;;;6.06;56.35
55044;BME280;54902;50.420;18.854;2023-04-28T01:56:08;101787.96;;;6.06;56.36
55044;BME280;54902;50.420;18.854;2023-04-28T01:56:39;101782.55;;;6.06;56.36
55044;BME280;54902;50.420;18.854;2023-04-28T01:57:10;101791.47;;;6.08;56.36
55044;BME280;54902;50.420;18.854;2023-04-28T01:57:41;101788.84;;;6.06;56.33
55044;BME280;54902;50.420;18.854;2023-04-28T01:58:13;101786.98;;;6.07;56.33
55044;BME280;54902;50.420;18.854;2023-04-28T01:58:44;101788.76;;;6.08;56.33
55044;BME280;54902;50.420;18.854;2023-04-28T01:59:15;101787.80;;;6.09;56.34
55044;BME280;54902;50.420;18.854;2023-04-28T01:59:46;101786.05;;;6.08;56.38
55044;BME280;54902;50.420;18.854;2023-04-28T02:00:17;101782.38;;;6.09;56.37
55044;BME280;54902;50.420;18.854;2023-04-28T02:00:48;101785.09;;;6.09;56.34
55044;BME280;54902;50.420;18.854;2023-04-28T02:01:19;101792.29;;;6.10;56.33
55044;BME280;54902;50.420;18.854;2023-04-28T02:01:50;101785.09;;;6.09;56.31
55044;BME280;54902;50.420;18.854;2023-04-28T02:02:21;101785.97;;;6.09;56.30
55044;BME280;54902;50.420;18.854;2023-04-28T02:02:52;101777.83;;;6.09;56.32
55044;BME280;54902;50.420;18.854;2023-04-28T02:03:23;101781.44;;;6.10;56.33
55044;BME280;54902;50.420;18.854;2023-04-28T02:03:54;101778.73;;;6.10;56.32
55044;BME280;54902;50.420;18.854;2023-04-28T02:04:25;101782.22;;;6.12;56.30
55044;BME280;54902;50.420;18.854;2023-04-28T02:04:56;101781.44;;;6.10;56.30
55044;BME280;54902;50.420;18.854;2023-04-28T02:05:27;101783.21;;;6.11;56.30
55044;BME280;54902;50.420;18.854;2023-04-28T02:05:58;101784.15;;;6.10;56.31
55044;BME280;54902;50.420;18.854;2023-04-28T02:06:29;101780.50;;;6.11;56.28
55044;BME280;54902;50.420;18.854;2023-04-28T02:07:01;101789.58;;;6.10;56.31
55044;BME280;54902;50.420;18.854;2023-04-28T02:07:32;101782.30;;;6.10;56.30
55044;BME280;54902;50.420;18.854;2023-04-28T02:08:03;101781.44;;;6.10;56.30
55044;BME280;54902;50.420;18.854;2023-04-28T02:08:34;101772.35;;;6.11;56.30
55044;BME280;54902;50.420;18.854;2023-04-28T02:09:05;101779.59;;;6.10;56.29
55044;BME280;54902;50.420;18.854;2023-04-28T02:09:36;101775.07;;;6.11;56.28
55044;BME280;54902;50.420;18.854;2023-04-28T02:10:08;101780.50;;;6.11;56.28
55044;BME280;54902;50.420;18.854;2023-04-28T02:10:39;101778.64;;;6.11;56.31
55044;BME280;54902;50.420;18.854;2023-04-28T02:11:09;101775.07;;;6.11;56.36
55044;BME280;54902;50.420;18.854;2023-04-28T02:11:40;101777.77;;;6.11;56.35
55044;BME280;54902;50.420;18.854;2023-04-28T02:12:11;101778.73;;;6.10;56.32
55044;BME280;54902;50.420;18.854;2023-04-28T02:12:42;101778.64;;;6.11;56.35
55044;BME280;54902;50.420;18.854;2023-04-28T02:13:13;101777.77;;;6.11;56.39
55044;BME280;54902;50.420;18.854;2023-04-28T02:13:44;101777.77;;;6.11;56.37
55044;BME280;54902;50.420;18.854;2023-04-28T02:14:15;101777.77;;;6.11;56.35
55044;BME280;54902;50.420;18.854;2023-04-28T02:14:46;101773.22;;;6.11;56.36
55044;BME280;54902;50.420;18.854;2023-04-28T02:15:17;101774.17;;;6.10;56.37
55044;BME280;54902;50.420;18.854;2023-04-28T02:15:49;101773.30;;;6.10;56.37
55044;BME280;54902;50.420;18.854;2023-04-28T02:16:20;101781.36;;;6.11;56.35
55044;BME280;54902;50.420;18.854;2023-04-28T02:16:51;101775.07;;;6.11;56.37
55044;BME280;54902;50.420;18.854;2023-04-28T02:17:21;101782.22;;;6.12;56.39
55044;BME280;54902;50.420;18.854;2023-04-28T02:17:52;101780.50;;;6.11;56.35
55044;BME280;54902;50.420;18.854;2023-04-28T02:18:23;101773.30;;;6.10;56.35
55044;BME280;54902;50.420;18.854;2023-04-28T02:18:54;101776.80;;;6.12;56.34
55044;BME280;54902;50.420;18.854;2023-04-28T02:19:25;101779.59;;;6.10;56.33
55044;BME280;54902;50.420;18.854;2023-04-28T02:19:56;101775.07;;;6.11;56.34
55044;BME280;54902;50.420;18.854;2023-04-28T02:20:27;101769.64;;;6.11;56.31
55044;BME280;54902;50.420;18.854;2023-04-28T02:21:43;101772.35;;;6.11;56.30
55044;BME280;54902;50.420;18.854;2023-04-28T02:22:14;101770.59;;;6.10;56.35
55044;BME280;54902;50.420;18.854;2023-04-28T02:22:45;101772.35;;;6.11;56.33
55044;BME280;54902;50.420;18.854;2023-04-28T02:23:16;101760.98;;;6.03;56.31
55044;BME280;54902;50.420;18.854;2023-04-28T02:23:47;101774.17;;;6.10;56.29
55044;BME280;54902;50.420;18.854;2023-04-28T02:24:20;101769.69;;;6.09;56.30
55044;BME280;54902;50.420;18.854;2023-04-28T02:24:51;101773.30;;;6.10;56.28
55044;BME280;54902;50.420;18.854;2023-04-28T02:25:21;101773.30;;;6.10;56.29
55044;BME280;54902;50.420;18.854;2023-04-28T02:26:00;101772.40;;;6.09;56.28
55044;BME280;54902;50.420;18.854;2023-04-28T02:26:32;101764.35;;;6.08;56.28
55044;BME280;54902;50.420;18.854;2023-04-28T02:27:04;101770.67;;;6.08;56.33
55044;BME280;54902;50.420;18.854;2023-04-28T02:27:35;101763.48;;;6.07;56.32
55044;BME280;54902;50.420;18.854;2023-04-28T02:28:06;101764.35;;;6.08;56.33
55044;BME280;54902;50.420;18.854;2023-04-28T02:28:37;101768.01;;;6.07;56.31
55044;BME280;54902;50.420;18.854;2023-04-28T02:29:08;101759.01;;;6.06;56.28
55044;BME280;54902;50.420;18.854;2023-04-28T02:29:39;101761.72;;;6.06;56.33
55044;BME280;54902;50.420;18.854;2023-04-28T02:30:10;101757.23;;;6.05;56.30
55044;BME280;54902;50.420;18.854;2023-04-28T02:30:41;101753.66;;;6.05;56.28
55044;BME280;54902;50.420;18.854;2023-04-28T02:31:12;101759.09;;;6.05;56.30
55044;BME280;54902;50.420;18.854;2023-04-28T02:31:43;101757.31;;;6.04;56.32
55044;BME280;54902;50.420;18.854;2023-04-28T02:32:14;101754.60;;;6.04;56.34
55044;BME280;54902;50.420;18.854;2023-04-28T02:32:45;101762.74;;;6.04;56.34
55044;BME280;54902;50.420;18.854;2023-04-28T02:33:16;101757.31;;;6.04;56.34
55044;BME280;54902;50.420;18.854;2023-04-28T02:33:47;101764.59;;;6.03;56.34
55044;BME280;54902;50.420;18.854;2023-04-28T02:34:18;101760.12;;;6.02;56.32
55044;BME280;54902;50.420;18.854;2023-04-28T02:34:53;101751.97;;;6.02;56.35
55044;BME280;54902;50.420;18.854;2023-04-28T02:35:24;101758.27;;;6.03;56.36
55044;BME280;54902;50.420;18.854;2023-04-28T02:35:59;101753.82;;;6.02;56.38
55044;BME280;54902;50.420;18.854;2023-04-28T02:36:30;101755.63;;;6.01;56.39
55044;BME280;54902;50.420;18.854;2023-04-28T02:37:02;101752.05;;;6.01;56.39
55044;BME280;54902;50.420;18.854;2023-04-28T02:37:34;101754.76;;;6.01;56.40
55044;BME280;54902;50.420;18.854;2023-04-28T02:38:06;101752.05;;;6.01;56.45
55044;BME280;54902;50.420;18.854;2023-04-28T02:38:38;101756.62;;;6.00;56.46
55044;BME280;54902;50.420;18.854;2023-04-28T02:39:11;101754.76;;;6.01;56.47
55044;BME280;54902;50.420;18.854;2023-04-28T02:39:46;101750.30;;;6.00;56.49
55044;BME280;54902;50.420;18.854;2023-04-28T02:40:17;101754.76;;;6.01;56.51
55044;BME280;54902;50.420;18.854;2023-04-28T02:40:56;101740.88;;;5.90;56.49
55044;BME280;54902;50.420;18.854;2023-04-28T02:41:29;101754.84;;;5.99;56.52
55044;BME280;54902;50.420;18.854;2023-04-28T02:42:01;101754.84;;;5.99;56.50
55044;BME280;54902;50.420;18.854;2023-04-28T02:42:34;101753.95;;;5.99;56.51
55044;BME280;54902;50.420;18.854;2023-04-28T02:43:05;101763.93;;;5.98;56.48
55044;BME280;54902;50.420;18.854;2023-04-28T02:43:36;101762.09;;;5.99;56.51
55044;BME280;54902;50.420;18.854;2023-04-28T02:44:07;101763.93;;;5.98;56.51
55044;BME280;54902;50.420;18.854;2023-04-28T02:44:38;101753.16;;;5.97;56.51
55044;BME280;54902;50.420;18.854;2023-04-28T02:45:10;101749.51;;;5.98;56.53